createdAt,value
2023-04-06T00:01:56.101Z,-0.24
2023-04-06T00:04:23.839Z,-0.22
2023-04-06T00:06:51.591Z,-0.21
2023-04-06T00:09:19.344Z,-0.21
2023-04-06T00:11:47.225Z,-0.22
2023-04-06T00:14:15.026Z,-0.19
2023-04-06T00:16:43.085Z,-0.20
2023-04-06T00:19:12.240Z,-0.23
2023-04-06T00:21:40.266Z,-0.25
2023-04-06T00:24:08.165Z,-0.25
2023-04-06T00:26:35.883Z,-0.31
2023-04-06T00:29:03.702Z,-0.34
2023-04-06T00:31:31.584Z,-0.34
2023-04-06T00:34:00.084Z,-0.36
2023-04-06T00:36:29.187Z,-0.36
2023-04-06T00:38:57.049Z,-0.39
2023-04-06T00:41:24.861Z,-0.44
2023-04-06T00:43:53.091Z,-0.41
2023-04-06T00:46:20.938Z,-0.44
2023-04-06T00:48:48.846Z,-0.52
2023-04-06T00:51:16.773Z,-0.52
2023-04-06T00:53:46.074Z,-0.54
2023-04-06T00:56:13.766Z,-0.55
2023-04-06T00:58:41.728Z,-0.51
2023-04-06T01:01:09.506Z,-0.48
2023-04-06T01:03:37.485Z,-0.46
2023-04-06T01:06:05.481Z,-0.48
2023-04-06T01:08:33.286Z,-0.51
2023-04-06T01:11:02.956Z,-0.52
2023-04-06T01:13:30.758Z,-0.53
2023-04-06T01:15:58.528Z,-0.58
2023-04-06T01:18:27.805Z,-0.56
2023-04-06T01:20:55.545Z,-0.62
2023-04-06T01:23:24.831Z,-0.60
2023-04-06T01:25:52.681Z,-0.68
2023-04-06T01:28:20.472Z,-0.71
2023-04-06T01:30:48.270Z,-0.73
2023-04-06T01:33:16.165Z,-0.69
2023-04-06T01:35:43.979Z,-0.69
2023-04-06T01:38:11.915Z,-0.73
2023-04-06T01:40:41.144Z,-0.74
2023-04-06T01:43:08.874Z,-0.76
2023-04-06T01:45:36.687Z,-0.74
2023-04-06T01:48:04.742Z,-0.76
2023-04-06T01:50:32.553Z,-0.76
2023-04-06T01:53:00.273Z,-0.80
2023-04-06T01:55:28.142Z,-0.83
2023-04-06T01:57:57.207Z,-0.86
2023-04-06T02:00:25.005Z,-0.88
2023-04-06T02:02:52.885Z,-0.87
2023-04-06T02:05:21.543Z,-0.89
2023-04-06T02:07:50.083Z,-0.89
2023-04-06T02:10:17.809Z,-0.88
2023-04-06T02:12:45.537Z,-0.87
2023-04-06T02:15:15.501Z,-0.90
2023-04-06T02:17:43.320Z,-0.95
2023-04-06T02:20:11.606Z,-1.00
2023-04-06T02:22:39.271Z,-1.01
2023-04-06T02:25:07.302Z,-1.01
2023-04-06T02:27:35.000Z,-1.06
2023-04-06T02:30:02.791Z,-1.05
2023-04-06T02:32:32.019Z,-1.07
2023-04-06T02:34:59.910Z,-1.03
2023-04-06T02:37:27.598Z,-1.06
2023-04-06T02:39:55.527Z,-1.08
2023-04-06T02:42:23.237Z,-1.05
2023-04-06T02:44:51.170Z,-1.05
2023-04-06T02:47:18.931Z,-1.04
2023-04-06T02:49:48.655Z,-1.09
2023-04-06T02:52:16.495Z,-1.04
2023-04-06T02:54:44.266Z,-1.06
2023-04-06T02:57:11.998Z,-1.06
2023-04-06T02:59:39.888Z,-1.01
2023-04-06T03:02:07.648Z,-1.03
2023-04-06T03:04:35.634Z,-1.07
2023-04-06T03:07:04.853Z,-1.05
2023-04-06T03:09:32.641Z,-1.00
2023-04-06T03:12:00.996Z,-1.00
2023-04-06T03:14:30.292Z,-1.05
2023-04-06T03:16:58.074Z,-1.05
2023-04-06T03:19:25.829Z,-1.03
2023-04-06T03:21:53.511Z,-1.04
2023-04-06T03:24:22.743Z,-1.07
2023-04-06T03:26:50.494Z,-1.10
2023-04-06T03:29:18.173Z,-1.06
2023-04-06T03:31:45.948Z,-1.01
2023-04-06T03:34:13.825Z,-1.09
2023-04-06T03:36:41.717Z,-1.05
2023-04-06T03:39:10.437Z,-1.05
2023-04-06T03:41:39.663Z,-1.06
2023-04-06T03:44:07.541Z,-1.13
2023-04-06T03:46:35.458Z,-1.12
2023-04-06T03:49:03.288Z,-1.17
2023-04-06T03:51:31.008Z,-1.28
2023-04-06T03:53:58.794Z,-1.34
2023-04-06T03:56:26.555Z,-1.33
2023-04-06T03:58:55.782Z,-1.39
2023-04-06T04:01:23.625Z,-1.43
2023-04-06T04:03:52.069Z,-1.48
2023-04-06T04:06:19.909Z,-1.49
2023-04-06T04:08:47.692Z,-1.55
2023-04-06T04:11:16.852Z,-1.56
2023-04-06T04:13:44.643Z,-1.53
2023-04-06T04:16:13.861Z,-1.50
2023-04-06T04:18:41.631Z,-1.54
2023-04-06T04:21:09.331Z,-1.50
2023-04-06T04:23:37.465Z,-1.49
2023-04-06T04:26:05.516Z,-1.43
2023-04-06T04:28:33.279Z,-1.41
2023-04-06T04:31:01.066Z,-1.39
2023-04-06T04:33:30.251Z,-1.39
2023-04-06T04:35:58.080Z,-1.40
2023-04-06T04:38:25.918Z,-1.39
2023-04-06T04:40:53.655Z,-1.36
2023-04-06T04:43:21.442Z,-1.34
2023-04-06T04:45:51.876Z,-1.32
2023-04-06T04:48:19.705Z,-1.31
2023-04-06T04:50:48.847Z,-1.31
2023-04-06T04:53:16.586Z,-1.27
2023-04-06T04:55:44.320Z,-1.23
2023-04-06T04:58:15.310Z,-1.24
2023-04-06T05:00:43.057Z,-1.24
2023-04-06T05:03:11.267Z,-1.21
2023-04-06T05:05:39.095Z,-1.19
2023-04-06T05:08:08.201Z,-1.14
2023-04-06T05:10:36.932Z,-1.14
2023-04-06T05:13:04.648Z,-1.09
2023-04-06T05:15:32.465Z,-1.09
2023-04-06T05:18:00.183Z,-1.06
2023-04-06T05:20:27.992Z,-1.00
2023-04-06T05:22:55.945Z,-0.94
2023-04-06T05:25:25.082Z,-0.89
2023-04-06T05:27:53.037Z,-0.93
2023-04-06T05:30:21.497Z,-0.93
2023-04-06T05:32:49.541Z,-0.88
2023-04-06T05:35:18.243Z,-0.78
2023-04-06T05:37:46.255Z,-0.71
2023-04-06T05:40:14.112Z,-0.59
2023-04-06T05:42:44.393Z,-0.52
2023-04-06T05:45:17.556Z,-0.55
2023-04-06T05:47:45.943Z,-0.49
2023-04-06T05:50:14.037Z,-0.51
2023-04-06T05:52:44.096Z,-0.56
2023-04-06T05:55:12.148Z,-0.54
2023-04-06T05:57:39.902Z,-0.48
2023-04-06T06:00:10.881Z,-0.41
2023-04-06T06:02:38.729Z,-0.35
2023-04-06T06:05:06.763Z,-0.33
2023-04-06T06:07:34.575Z,-0.32
2023-04-06T06:10:02.278Z,-0.27
2023-04-06T06:12:30.125Z,-0.30
2023-04-06T06:14:58.005Z,-0.23
2023-04-06T06:17:27.244Z,-0.12
2023-04-06T06:19:55.008Z,-0.08
2023-04-06T06:22:22.749Z,-0.06
2023-04-06T06:24:50.822Z,0.07
2023-04-06T06:27:18.597Z,0.04
2023-04-06T06:29:46.388Z,-0.01
2023-04-06T06:32:14.133Z,0.01
2023-04-06T06:34:43.280Z,0.07
2023-04-06T06:37:11.174Z,0.08
2023-04-06T06:39:38.998Z,0.03
2023-04-06T06:42:06.794Z,0.09
2023-04-06T06:44:34.545Z,0.17
2023-04-06T06:47:02.240Z,0.21
2023-04-06T06:49:30.077Z,0.22
2023-04-06T06:51:59.296Z,0.32
2023-04-06T06:54:27.012Z,0.36
2023-04-06T06:56:55.379Z,0.45
2023-04-06T06:59:23.315Z,0.54
2023-04-06T07:01:52.036Z,0.55
2023-04-06T07:04:19.815Z,0.60
2023-04-06T07:06:47.695Z,0.67
2023-04-06T07:09:16.824Z,0.66
2023-04-06T07:11:44.657Z,0.69
2023-04-06T07:14:12.682Z,0.73
2023-04-06T07:16:40.470Z,0.87
2023-04-06T07:19:09.114Z,0.90
2023-04-06T07:21:36.929Z,1.00
2023-04-06T07:24:04.775Z,1.01
2023-04-06T07:26:33.987Z,1.07
2023-04-06T07:29:01.860Z,1.09
2023-04-06T07:31:29.736Z,1.21
2023-04-06T07:33:57.559Z,1.31
2023-04-06T07:36:25.306Z,1.36
2023-04-06T07:38:53.085Z,1.40
2023-04-06T07:41:20.852Z,1.46
2023-04-06T07:43:50.125Z,1.47
2023-04-06T07:46:17.889Z,1.37
2023-04-06T07:48:45.736Z,1.37
2023-04-06T07:51:15.326Z,1.39
2023-04-06T07:53:43.149Z,1.43
2023-04-06T07:56:10.995Z,1.59
2023-04-06T07:58:38.686Z,1.64
2023-04-06T08:01:07.866Z,1.72
2023-04-06T08:03:35.969Z,1.82
2023-04-06T08:06:04.528Z,1.83
2023-04-06T08:08:32.373Z,1.88
2023-04-06T08:11:02.046Z,2.05
2023-04-06T08:13:30.336Z,2.13
2023-04-06T08:15:58.197Z,2.23
2023-04-06T08:18:27.491Z,2.30
2023-04-06T08:20:56.627Z,2.36
2023-04-06T08:23:24.368Z,2.39
2023-04-06T08:25:55.166Z,2.44
2023-04-06T08:28:22.998Z,2.42
2023-04-06T08:30:50.823Z,2.46
2023-04-06T08:33:18.660Z,2.44
2023-04-06T08:35:47.843Z,2.45
2023-04-06T08:38:15.563Z,2.48
2023-04-06T08:40:45.409Z,2.52
2023-04-06T08:43:15.498Z,2.60
2023-04-06T08:45:43.561Z,2.72
2023-04-06T08:48:11.631Z,2.75
2023-04-06T08:50:40.321Z,2.82
2023-04-06T08:53:10.271Z,2.87
2023-04-06T08:55:38.096Z,2.92
2023-04-06T08:58:08.829Z,3.08
2023-04-06T09:00:39.834Z,3.00
2023-04-06T09:03:08.686Z,3.01
2023-04-06T09:05:37.182Z,3.03
2023-04-06T09:08:05.053Z,3.03
2023-04-06T09:10:35.172Z,3.03
2023-04-06T09:13:07.013Z,3.06
2023-04-06T09:15:34.787Z,3.07
2023-04-06T09:18:02.648Z,3.08
2023-04-06T09:20:30.489Z,3.12
2023-04-06T09:22:58.390Z,3.10
2023-04-06T09:25:27.869Z,3.18
2023-04-06T09:28:04.099Z,3.23
2023-04-06T09:30:32.015Z,3.31
2023-04-06T09:33:00.506Z,3.39
2023-04-06T09:35:30.445Z,3.44
2023-04-06T09:37:58.604Z,3.45
2023-04-06T09:40:30.266Z,3.48
2023-04-06T09:43:00.330Z,3.49
2023-04-06T09:45:31.665Z,3.59
2023-04-06T09:47:59.811Z,3.70
2023-04-06T09:50:28.870Z,3.82
2023-04-06T09:52:57.912Z,3.86
2023-04-06T09:55:28.423Z,3.74
2023-04-06T09:57:59.902Z,3.70
2023-04-06T10:00:30.559Z,3.70
2023-04-06T10:03:00.712Z,3.77
2023-04-06T10:05:32.859Z,3.70
2023-04-06T10:08:03.778Z,3.72
2023-04-06T10:10:32.198Z,3.77
2023-04-06T10:13:01.042Z,3.88
2023-04-06T10:15:31.073Z,3.91
2023-04-06T10:17:59.183Z,3.95
2023-04-06T10:20:30.207Z,3.98
2023-04-06T10:23:01.725Z,3.98
2023-04-06T10:25:30.380Z,3.94
2023-04-06T10:28:01.825Z,3.91
2023-04-06T10:30:32.168Z,4.01
2023-04-06T10:33:00.115Z,3.99
2023-04-06T10:35:38.358Z,4.01
2023-04-06T10:38:06.547Z,4.07
2023-04-06T10:40:34.240Z,4.11
2023-04-06T10:43:09.527Z,4.13
2023-04-06T10:45:39.137Z,4.14
2023-04-06T10:48:17.042Z,4.17
2023-04-06T10:50:45.703Z,4.14
2023-04-06T10:53:13.676Z,4.19
2023-04-06T10:55:42.200Z,4.19
2023-04-06T10:58:10.330Z,4.19
2023-04-06T11:03:15.398Z,4.28
2023-04-06T11:05:47.729Z,4.27
2023-04-06T11:08:24.382Z,4.24
2023-04-06T11:10:54.308Z,4.24
2023-04-06T11:13:22.045Z,4.25
2023-04-06T11:15:51.199Z,4.28
2023-04-06T11:18:19.841Z,4.26
2023-04-06T11:20:49.800Z,4.22
2023-04-06T11:23:24.601Z,4.23
2023-04-06T11:25:52.941Z,4.22
2023-04-06T11:28:20.849Z,4.21
2023-04-06T11:30:49.264Z,4.21
2023-04-06T11:33:24.032Z,4.28
2023-04-06T11:35:51.870Z,4.31
2023-04-06T11:38:20.497Z,4.35
2023-04-06T11:40:48.321Z,4.39
2023-04-06T11:43:16.479Z,4.40
2023-04-06T11:45:44.730Z,4.41
2023-04-06T11:48:20.261Z,4.41
2023-04-06T11:50:50.109Z,4.40
2023-04-06T11:53:17.802Z,4.38
2023-04-06T11:55:47.872Z,4.44
2023-04-06T11:58:16.064Z,4.47
2023-04-06T12:00:47.357Z,4.46
2023-04-06T12:03:15.854Z,4.45
2023-04-06T12:05:43.771Z,4.39
2023-04-06T12:08:13.084Z,4.43
2023-04-06T12:10:40.911Z,4.43
2023-04-06T12:13:08.671Z,4.46
2023-04-06T12:15:36.541Z,4.52
2023-04-06T12:18:04.413Z,4.55
2023-04-06T12:20:32.256Z,4.57
2023-04-06T12:23:00.135Z,4.56
2023-04-06T12:25:31.093Z,4.57
2023-04-06T12:27:58.953Z,4.58
2023-04-06T12:30:26.739Z,4.59
2023-04-06T12:32:54.546Z,4.65
2023-04-06T12:35:22.863Z,4.66
2023-04-06T12:37:50.859Z,4.71
2023-04-06T12:40:18.630Z,4.79
2023-04-06T12:42:47.955Z,4.85
2023-04-06T12:45:15.704Z,4.83
2023-04-06T12:47:43.528Z,4.82
2023-04-06T12:50:11.496Z,4.87
2023-04-06T12:52:39.296Z,4.92
2023-04-06T12:55:07.893Z,4.83
2023-04-06T12:57:35.812Z,4.79
2023-04-06T13:00:07.789Z,4.81
2023-04-06T13:02:36.938Z,4.93
2023-04-06T13:05:04.795Z,4.96
2023-04-06T13:07:32.540Z,4.93
2023-04-06T13:10:00.572Z,4.89
2023-04-06T13:12:28.410Z,4.90
2023-04-06T13:14:56.167Z,4.94
2023-04-06T13:17:25.390Z,4.93
2023-04-06T13:19:53.182Z,4.91
2023-04-06T13:22:20.959Z,4.84
2023-04-06T13:24:48.735Z,4.85
2023-04-06T13:27:16.476Z,4.89
2023-04-06T13:29:44.272Z,4.93
2023-04-06T13:32:12.149Z,4.90
2023-04-06T13:34:41.496Z,4.83
2023-04-06T13:37:09.210Z,4.82
2023-04-06T13:39:37.318Z,4.82
2023-04-06T13:42:05.054Z,4.83
2023-04-06T13:44:32.797Z,4.81
2023-04-06T13:47:00.568Z,4.80
2023-04-06T13:49:28.993Z,4.80
2023-04-06T13:51:58.144Z,4.78
2023-04-06T13:54:25.815Z,4.75
2023-04-06T13:56:53.683Z,4.74
2023-04-06T13:59:21.308Z,4.72
2023-04-06T14:01:49.994Z,4.68
2023-04-06T14:04:17.750Z,4.66
2023-04-06T14:06:46.978Z,4.65
2023-04-06T14:09:16.100Z,4.62
2023-04-06T14:11:43.741Z,4.61
2023-04-06T14:14:11.565Z,4.66
2023-04-06T14:16:39.425Z,4.65
2023-04-06T14:19:07.036Z,4.69
2023-04-06T14:21:34.717Z,4.72
2023-04-06T14:24:02.799Z,4.75
2023-04-06T14:26:33.095Z,4.77
2023-04-06T14:29:01.069Z,4.78
2023-04-06T14:31:28.788Z,4.79
2023-04-06T14:33:56.897Z,4.75
2023-04-06T14:36:24.689Z,4.75
2023-04-06T14:38:53.925Z,4.80
2023-04-06T14:41:22.230Z,4.75
2023-04-06T14:43:53.556Z,4.70
2023-04-06T14:46:21.341Z,4.68
2023-04-06T14:48:49.037Z,4.69
2023-04-06T14:51:17.731Z,4.69
2023-04-06T14:53:45.759Z,4.72
2023-04-06T14:56:13.551Z,4.71
2023-04-06T14:58:41.292Z,4.72
2023-04-06T15:01:10.300Z,4.70
2023-04-06T15:03:38.101Z,4.75
2023-04-06T15:06:06.456Z,4.83
2023-04-06T15:08:35.406Z,4.86
2023-04-06T15:11:03.436Z,4.84
2023-04-06T15:13:31.191Z,4.82
2023-04-06T15:16:01.275Z,4.81
2023-04-06T15:18:31.084Z,4.80
2023-04-06T15:20:58.972Z,4.74
2023-04-06T15:23:26.935Z,4.72
2023-04-06T15:25:54.632Z,4.68
2023-04-06T15:28:22.348Z,4.67
2023-04-06T15:30:50.168Z,4.64
2023-04-06T15:33:18.343Z,4.65
2023-04-06T15:35:47.733Z,4.62
2023-04-06T15:38:15.882Z,4.61
2023-04-06T15:40:47.252Z,4.59
2023-04-06T15:43:15.538Z,4.57
2023-04-06T15:45:43.411Z,4.54
2023-04-06T15:48:11.183Z,4.54
2023-04-06T15:50:38.874Z,4.55
2023-04-06T15:53:07.853Z,4.55
2023-04-06T15:55:35.584Z,4.55
2023-04-06T15:58:03.200Z,4.52
2023-04-06T16:00:31.181Z,4.49
2023-04-06T16:02:59.152Z,4.47
2023-04-06T16:05:28.501Z,4.45
2023-04-06T16:07:57.523Z,4.44
2023-04-06T16:10:26.648Z,4.43
2023-04-06T16:12:54.297Z,4.41
2023-04-06T16:15:22.047Z,4.44
2023-04-06T16:17:49.774Z,4.41
2023-04-06T16:20:17.585Z,4.39
2023-04-06T16:22:45.383Z,4.38
2023-04-06T16:25:13.089Z,4.34
2023-04-06T16:27:43.247Z,4.32
2023-04-06T16:30:11.635Z,4.26
2023-04-06T16:32:39.439Z,4.18
2023-04-06T16:35:07.739Z,4.12
2023-04-06T16:37:36.119Z,4.05
2023-04-06T16:40:04.282Z,4.04
2023-04-06T16:42:32.007Z,4.03
2023-04-06T16:45:01.108Z,4.00
2023-04-06T16:47:28.918Z,4.01
2023-04-06T16:50:05.585Z,4.00
2023-04-06T16:52:34.274Z,3.97
2023-04-06T16:55:01.986Z,3.97
2023-04-06T16:57:30.234Z,3.93
2023-04-06T16:59:57.900Z,3.88
2023-04-06T17:02:27.477Z,3.85
2023-04-06T17:04:55.195Z,3.81
2023-04-06T17:07:26.488Z,3.76
2023-04-06T17:09:54.226Z,3.69
2023-04-06T17:12:21.917Z,3.63
2023-04-06T17:14:52.545Z,3.57
2023-04-06T17:17:20.220Z,3.54
2023-04-06T17:19:49.200Z,3.49
2023-04-06T17:22:20.719Z,3.44
2023-04-06T17:24:49.231Z,3.40
2023-04-06T17:27:17.061Z,3.34
2023-04-06T17:29:44.734Z,3.32
2023-04-06T17:32:12.687Z,3.28
2023-04-06T17:34:40.428Z,3.26
2023-04-06T17:37:09.450Z,3.22
2023-04-06T17:39:37.107Z,3.16
2023-04-06T17:42:05.434Z,3.12
2023-04-06T17:44:33.337Z,3.12
2023-04-06T17:47:00.959Z,3.08
2023-04-06T17:49:28.638Z,3.04
2023-04-06T17:51:56.278Z,3.00
2023-04-06T17:54:25.501Z,2.94
2023-04-06T17:56:53.563Z,2.93
2023-04-06T17:59:21.179Z,2.90
2023-04-06T18:01:48.864Z,2.88
2023-04-06T18:04:16.617Z,2.86
2023-04-06T18:06:44.324Z,2.85
2023-04-06T18:09:12.013Z,2.87
2023-04-06T18:11:41.235Z,2.84
2023-04-06T18:14:09.331Z,2.80
2023-04-06T18:16:36.977Z,2.78
2023-04-06T18:19:04.913Z,2.74
2023-04-06T18:21:32.885Z,2.73
2023-04-06T18:24:04.743Z,2.74
2023-04-06T18:26:33.523Z,2.72
2023-04-06T18:29:02.705Z,2.69
2023-04-06T18:31:30.827Z,2.69
2023-04-06T18:33:58.933Z,2.65
2023-04-06T18:36:27.709Z,2.64
2023-04-06T18:38:55.431Z,2.62
2023-04-06T18:41:23.185Z,2.60
2023-04-06T18:43:50.887Z,2.57
2023-04-06T18:46:20.640Z,2.56
2023-04-06T18:48:48.408Z,2.57
2023-04-06T18:51:16.209Z,2.51
2023-04-06T18:53:43.949Z,2.49
2023-04-06T18:56:15.808Z,2.50
2023-04-06T18:58:43.680Z,2.46
2023-04-06T19:01:11.344Z,2.44
2023-04-06T19:03:40.876Z,2.44
2023-04-06T19:06:08.828Z,2.42
2023-04-06T19:08:39.192Z,2.42
2023-04-06T19:11:08.470Z,2.36
2023-04-06T19:13:38.050Z,2.32
2023-04-06T19:16:08.412Z,2.31
2023-04-06T19:18:37.239Z,2.30
2023-04-06T19:21:06.573Z,2.30
2023-04-06T19:23:35.088Z,2.32
2023-04-06T19:26:03.025Z,2.32
2023-04-06T19:28:30.689Z,2.32
2023-04-06T19:30:58.296Z,2.32
2023-04-06T19:33:26.022Z,2.31
2023-04-06T19:35:53.843Z,2.30
2023-04-06T19:38:22.961Z,2.25
2023-04-06T19:40:50.632Z,2.23
2023-04-06T19:43:18.922Z,2.25
2023-04-06T19:45:46.524Z,2.25
2023-04-06T19:48:14.449Z,2.26
2023-04-06T19:50:42.119Z,2.23
2023-04-06T19:53:09.805Z,2.25
2023-04-06T19:55:38.959Z,2.22
2023-04-06T19:58:07.046Z,2.24
2023-04-06T20:00:37.502Z,2.23
2023-04-06T20:03:05.307Z,2.21
2023-04-06T20:05:33.014Z,2.17
2023-04-06T20:08:00.822Z,2.18
2023-04-06T20:10:28.458Z,2.18
2023-04-06T20:12:57.613Z,2.17
2023-04-06T20:15:25.551Z,2.16
2023-04-06T20:17:53.409Z,2.16
2023-04-06T20:20:21.164Z,2.14
2023-04-06T20:22:50.133Z,2.14
2023-04-06T20:25:19.189Z,2.16
2023-04-06T20:27:47.005Z,2.15
2023-04-06T20:30:16.782Z,2.12
2023-04-06T20:32:44.757Z,2.10
2023-04-06T20:35:12.628Z,2.08
2023-04-06T20:37:40.391Z,2.07
2023-04-06T20:40:08.586Z,2.05
2023-04-06T20:42:37.268Z,2.04
2023-04-06T20:45:05.518Z,2.02
2023-04-06T20:47:34.743Z,2.03
2023-04-06T20:50:02.678Z,1.99
2023-04-06T20:52:30.293Z,1.98
2023-04-06T20:54:58.106Z,1.97
2023-04-06T20:57:26.290Z,1.97
2023-04-06T20:59:54.023Z,1.97
2023-04-06T21:02:22.051Z,1.96
2023-04-06T21:04:51.355Z,1.94
2023-04-06T21:07:19.124Z,1.95
2023-04-06T21:09:46.795Z,1.93
2023-04-06T21:12:14.424Z,1.92
2023-04-06T21:14:42.986Z,1.91
2023-04-06T21:17:11.614Z,1.91
2023-04-06T21:19:39.275Z,1.92
2023-04-06T21:22:08.331Z,1.93
2023-04-06T21:24:35.995Z,1.93
2023-04-06T21:27:03.651Z,1.94
2023-04-06T21:29:33.016Z,1.94
2023-04-06T21:32:03.753Z,1.93
2023-04-06T21:34:31.595Z,1.93
2023-04-06T21:36:59.285Z,1.89
2023-04-06T21:39:28.408Z,1.89
2023-04-06T21:41:56.515Z,1.86
2023-04-06T21:44:24.159Z,1.86
2023-04-06T21:46:51.892Z,1.86
2023-04-06T21:49:19.612Z,1.83
2023-04-06T21:51:47.467Z,1.82
2023-04-06T21:54:18.866Z,1.82
2023-04-06T21:56:48.316Z,1.83
2023-04-06T21:59:16.007Z,1.82
2023-04-06T22:01:43.855Z,1.83
2023-04-06T22:04:11.685Z,1.83
2023-04-06T22:06:39.400Z,1.82
2023-04-06T22:09:07.167Z,1.83
2023-04-06T22:11:34.835Z,1.84
2023-04-06T22:14:05.194Z,1.83
2023-04-06T22:16:33.119Z,1.85
2023-04-06T22:19:00.875Z,1.84
2023-04-06T22:21:29.308Z,1.85
2023-04-06T22:23:57.045Z,1.81
2023-04-06T22:26:24.798Z,1.81
2023-04-06T22:28:52.448Z,1.83
2023-04-06T22:31:22.199Z,1.86
2023-04-06T22:33:50.114Z,1.85
2023-04-06T22:36:17.759Z,1.86
2023-04-06T22:38:45.396Z,1.86
2023-04-06T22:41:13.034Z,1.81
2023-04-06T22:43:40.828Z,1.81
2023-04-06T22:46:08.510Z,1.82
2023-04-06T22:48:37.610Z,1.80
2023-04-06T22:51:05.438Z,1.80
2023-04-06T22:53:33.213Z,1.80
2023-04-06T22:56:00.913Z,1.79
2023-04-06T22:58:28.624Z,1.74
2023-04-06T23:00:56.487Z,1.75
2023-04-06T23:03:24.260Z,1.73
2023-04-06T23:05:53.699Z,1.76
2023-04-06T23:08:21.360Z,1.74
2023-04-06T23:10:49.032Z,1.74
2023-04-06T23:13:16.698Z,1.75
2023-04-06T23:15:44.315Z,1.74
2023-04-06T23:18:12.031Z,1.76
2023-04-06T23:20:40.410Z,1.76
2023-04-06T23:23:09.407Z,1.74
2023-04-06T23:25:37.068Z,1.73
2023-04-06T23:28:04.776Z,1.73
2023-04-06T23:30:32.424Z,1.74
2023-04-06T23:33:00.282Z,1.72
2023-04-06T23:35:27.966Z,1.73
2023-04-06T23:37:55.639Z,1.71
2023-04-06T23:40:25.339Z,1.69
2023-04-06T23:42:53.062Z,1.67
2023-04-06T23:45:20.804Z,1.69
2023-04-06T23:47:48.529Z,1.68
2023-04-06T23:50:16.203Z,1.68
2023-04-06T23:52:43.860Z,1.69
2023-04-06T23:55:11.523Z,1.69
2023-04-06T23:57:40.635Z,1.69
